createdAt,value
2017-11-24T06:38:56.726Z,61.90
2017-11-24T06:41:25.615Z,61.20
2017-11-24T06:43:53.782Z,61.00
2017-11-24T06:46:22.677Z,61.10
2017-11-24T06:48:51.711Z,61.10
2017-11-24T06:51:19.859Z,61.00
2017-11-24T06:53:48.761Z,61.50
2017-11-24T06:56:16.893Z,61.40
2017-11-24T06:58:45.808Z,61.60
2017-11-24T07:01:13.966Z,61.60
2017-11-24T07:03:42.864Z,62.10
2017-11-24T07:06:10.999Z,62.10
2017-11-24T07:08:39.160Z,61.60
2017-11-24T07:11:07.289Z,61.70
2017-11-24T07:13:35.462Z,61.70
2017-11-24T07:16:03.602Z,61.40
2017-11-24T07:18:31.775Z,61.50
2017-11-24T07:20:59.909Z,61.70
2017-11-24T07:23:28.035Z,61.60
2017-11-24T07:25:56.941Z,61.80
2017-11-24T07:28:25.853Z,61.70
2017-11-24T07:30:54.009Z,61.70
2017-11-24T07:33:22.143Z,61.80
2017-11-24T07:35:50.310Z,61.70
2017-11-24T07:38:18.437Z,61.50
2017-11-24T07:40:46.630Z,61.40
2017-11-24T07:43:14.756Z,61.40
2017-11-24T07:45:43.702Z,61.40
2017-11-24T07:48:11.820Z,61.30
2017-11-24T07:50:40.740Z,62.00
2017-11-24T07:53:08.911Z,62.00
2017-11-24T07:55:37.036Z,61.40
2017-11-24T07:58:05.325Z,61.50
2017-11-24T08:00:33.457Z,61.50
2017-11-24T08:03:01.618Z,61.50
2017-11-24T08:05:29.769Z,61.20
2017-11-24T08:07:57.905Z,60.70
2017-11-24T08:10:26.069Z,60.60
2017-11-24T08:12:54.201Z,61.00
2017-11-24T08:15:22.393Z,60.60
2017-11-24T08:17:50.544Z,60.70
2017-11-24T08:20:18.711Z,60.60
2017-11-24T08:22:46.844Z,60.10
2017-11-24T08:25:14.974Z,60.20
2017-11-24T08:27:43.150Z,60.10
2017-11-24T08:30:11.285Z,60.30
2017-11-24T08:32:39.582Z,59.80
2017-11-24T08:35:07.718Z,60.00
2017-11-24T08:37:35.849Z,59.80
2017-11-24T08:40:04.003Z,59.70
2017-11-24T08:42:32.148Z,59.90
2017-11-24T08:45:00.305Z,59.60
2017-11-24T08:47:28.446Z,59.70
2017-11-24T08:49:56.713Z,59.90
2017-11-24T08:52:24.854Z,59.60
2017-11-24T08:54:53.015Z,59.10
2017-11-24T08:57:21.190Z,59.50
2017-11-24T08:59:49.310Z,59.40
2017-11-24T09:02:17.471Z,59.10
2017-11-24T09:04:45.610Z,59.00
2017-11-24T09:07:13.878Z,59.20
2017-11-24T09:09:42.027Z,59.20
2017-11-24T09:12:10.194Z,59.00
2017-11-24T09:14:38.382Z,58.70
2017-11-24T09:17:06.534Z,58.70
2017-11-24T09:19:34.698Z,58.40
2017-11-24T09:22:03.605Z,58.20
2017-11-24T09:24:31.893Z,58.20
2017-11-24T09:27:00.022Z,58.60
2017-11-24T09:29:28.171Z,58.70
2017-11-24T09:31:56.322Z,57.90
2017-11-24T09:34:24.455Z,57.90
2017-11-24T09:36:52.622Z,58.00
2017-11-24T09:39:20.749Z,57.70
2017-11-24T09:41:49.041Z,57.70
2017-11-24T09:44:17.970Z,57.00
2017-11-24T09:46:46.118Z,57.00
2017-11-24T09:49:15.033Z,57.60
2017-11-24T09:51:43.153Z,57.50
2017-11-24T09:54:11.329Z,57.30
2017-11-24T09:56:39.465Z,57.90
2017-11-24T09:59:07.601Z,56.90
2017-11-24T10:01:35.762Z,56.70
2017-11-24T10:04:04.709Z,57.20
2017-11-24T10:06:32.845Z,57.20
2017-11-24T10:09:00.976Z,56.90
2017-11-24T10:11:29.158Z,56.70
2017-11-24T10:13:57.324Z,56.50
2017-11-24T10:16:25.590Z,57.00
2017-11-24T10:18:53.775Z,56.70
2017-11-24T10:21:21.959Z,56.60
2017-11-24T10:23:50.085Z,56.30
2017-11-24T10:26:18.267Z,56.30
2017-11-24T10:28:46.410Z,55.60
2017-11-24T10:31:14.561Z,56.00
2017-11-24T10:33:42.692Z,56.10
2017-11-24T10:36:10.878Z,55.80
2017-11-24T10:38:39.017Z,54.70
2017-11-24T10:41:07.151Z,55.50
2017-11-24T10:43:35.290Z,54.80
2017-11-24T10:46:03.422Z,54.30
2017-11-24T10:48:31.582Z,53.90
2017-11-24T10:51:00.473Z,55.00
2017-11-24T10:53:29.521Z,54.40
2017-11-24T10:55:57.664Z,54.40
2017-11-24T10:58:25.830Z,54.30
2017-11-24T11:00:53.976Z,54.50
2017-11-24T11:03:22.140Z,54.20
2017-11-24T11:05:50.303Z,54.10
2017-11-24T11:08:18.589Z,54.50
2017-11-24T11:10:46.733Z,53.30
2017-11-24T11:13:14.882Z,53.70
2017-11-24T11:15:43.050Z,54.30
2017-11-24T11:18:11.942Z,52.80
2017-11-24T11:20:40.098Z,52.80
2017-11-24T11:23:08.236Z,52.10
2017-11-24T11:25:36.521Z,51.80
2017-11-24T11:28:04.663Z,51.60
2017-11-24T11:30:32.795Z,52.50
2017-11-24T11:33:01.735Z,51.70
2017-11-24T11:35:29.873Z,51.70
2017-11-24T11:37:58.044Z,52.80
2017-11-24T11:40:26.178Z,52.40
2017-11-24T11:42:54.373Z,52.70
2017-11-24T11:45:23.306Z,53.00
2017-11-24T11:47:56.961Z,52.90
2017-11-24T11:50:25.887Z,53.50
2017-11-24T11:52:54.030Z,53.50
2017-11-24T11:55:22.946Z,53.70
2017-11-24T11:57:51.103Z,53.70
2017-11-24T12:00:20.009Z,54.20
2017-11-24T12:02:48.283Z,53.60
2017-11-24T12:05:16.406Z,53.90
2017-11-24T12:07:44.593Z,54.00
2017-11-24T12:10:12.732Z,53.60
2017-11-24T12:12:40.885Z,53.80
2017-11-24T12:15:09.068Z,54.30
2017-11-24T12:17:37.333Z,55.40
2017-11-24T12:20:05.468Z,57.00
2017-11-24T12:22:34.410Z,58.30
2017-11-24T12:25:02.550Z,58.30
2017-11-24T12:27:31.455Z,58.30
2017-11-24T12:29:59.620Z,58.30
2017-11-24T12:32:27.905Z,61.90
2017-11-24T12:34:56.034Z,63.50
2017-11-24T12:37:24.204Z,64.20
2017-11-24T12:39:52.331Z,65.10
2017-11-24T12:42:20.516Z,65.20
2017-11-24T12:44:48.650Z,66.40
2017-11-24T12:47:17.549Z,69.90
2017-11-24T12:49:45.750Z,69.80
2017-11-24T12:52:13.894Z,71.20
2017-11-24T12:54:42.845Z,73.40
2017-11-24T12:57:10.974Z,73.40
2017-11-24T12:59:39.119Z,73.10
2017-11-24T13:02:08.053Z,74.00
2017-11-24T13:04:36.345Z,73.30
2017-11-24T13:07:04.480Z,73.30
2017-11-24T13:09:32.622Z,73.60
2017-11-24T13:12:08.625Z,73.90
2017-11-24T13:14:36.793Z,73.60
2017-11-24T13:17:04.966Z,74.40
2017-11-24T13:19:33.097Z,74.30
2017-11-24T13:22:01.406Z,75.00
2017-11-24T13:24:29.563Z,75.10
2017-11-24T13:26:57.708Z,75.70
2017-11-24T13:29:25.878Z,76.50
2017-11-24T13:31:54.014Z,76.70
2017-11-24T13:34:22.176Z,76.90
2017-11-24T13:36:50.315Z,77.50
2017-11-24T13:39:18.462Z,77.40
2017-11-24T13:41:46.634Z,77.70
2017-11-24T13:44:14.768Z,78.20
2017-11-24T13:46:42.934Z,79.40
2017-11-24T13:49:11.109Z,80.20
2017-11-24T13:51:40.003Z,79.80
2017-11-24T13:54:08.161Z,79.80
2017-11-24T13:56:37.059Z,80.30
2017-11-24T13:59:06.110Z,80.40
2017-11-24T14:01:34.260Z,80.40
2017-11-24T14:04:02.374Z,80.40
2017-11-24T14:06:30.537Z,80.90
2017-11-24T14:08:58.690Z,80.40
2017-11-24T14:11:26.845Z,80.50
2017-11-24T14:13:55.018Z,80.80
2017-11-24T14:16:23.286Z,80.00
2017-11-24T14:18:51.415Z,80.30
2017-11-24T14:21:19.591Z,81.00
2017-11-24T14:23:47.736Z,80.10
2017-11-24T14:26:16.618Z,79.90
2017-11-24T14:28:44.810Z,79.90
2017-11-24T14:31:12.960Z,79.70
2017-11-24T14:33:41.225Z,78.00
2017-11-24T14:36:09.399Z,79.10
2017-11-24T14:38:37.590Z,79.90
2017-11-24T14:41:05.725Z,79.90
2017-11-24T14:43:33.899Z,80.30
2017-11-24T14:46:02.830Z,79.80
2017-11-24T14:48:30.965Z,79.70
2017-11-24T14:50:59.885Z,79.80
2017-11-24T14:53:28.772Z,79.60
2017-11-24T14:55:57.066Z,79.60
2017-11-24T14:58:25.221Z,79.80
2017-11-24T15:00:53.361Z,80.20
2017-11-24T15:03:22.319Z,79.60
2017-11-24T15:05:50.457Z,79.60
2017-11-24T15:08:18.589Z,79.40
2017-11-24T15:10:47.522Z,79.40
2017-11-24T15:13:15.686Z,79.30
2017-11-24T15:15:43.981Z,79.90
2017-11-24T15:18:12.097Z,79.50
2017-11-24T15:20:40.272Z,79.40
2017-11-24T15:23:08.431Z,78.90
2017-11-24T15:25:36.562Z,78.50
2017-11-24T15:28:04.729Z,78.50
2017-11-24T15:30:32.874Z,78.00
2017-11-24T15:33:01.175Z,78.70
2017-11-24T15:35:29.299Z,79.00
2017-11-24T15:37:57.471Z,80.00
2017-11-24T15:40:25.620Z,79.10
2017-11-24T15:42:53.770Z,78.90
2017-11-24T15:45:21.942Z,78.80
2017-11-24T15:47:50.081Z,78.80
2017-11-24T15:50:18.375Z,78.80
2017-11-24T15:52:47.370Z,78.30
2017-11-24T15:55:15.486Z,78.30
2017-11-24T15:57:43.639Z,78.40
2017-11-24T16:00:11.779Z,78.40
2017-11-24T16:02:39.942Z,78.40
2017-11-24T16:05:08.078Z,78.20
2017-11-24T16:07:36.361Z,78.30
2017-11-24T16:10:04.521Z,78.30
2017-11-24T16:12:32.668Z,78.50
2017-11-24T16:15:01.646Z,78.40
2017-11-24T16:17:29.777Z,78.40
2017-11-24T16:19:58.102Z,78.20
2017-11-24T16:22:26.250Z,78.00
2017-11-24T16:24:54.398Z,77.90
2017-11-24T16:27:22.602Z,78.00
2017-11-24T16:29:50.757Z,77.90
2017-11-24T16:32:18.957Z,77.80
2017-11-24T16:34:47.098Z,77.80
2017-11-24T16:37:15.267Z,77.80
2017-11-24T16:39:43.411Z,77.90
2017-11-24T16:42:11.726Z,78.10
2017-11-24T16:44:39.877Z,78.30
2017-11-24T16:47:08.022Z,78.20
2017-11-24T16:49:36.199Z,78.10
2017-11-24T16:52:04.367Z,78.60
2017-11-24T16:54:33.294Z,77.80
2017-11-24T16:57:01.447Z,77.80
2017-11-24T16:59:29.580Z,77.90
2017-11-24T17:01:57.883Z,77.30
2017-11-24T17:04:26.786Z,77.30
2017-11-24T17:06:54.959Z,77.40
2017-11-24T17:09:23.079Z,77.10
2017-11-24T17:11:51.261Z,77.30
2017-11-24T17:14:19.441Z,77.20
2017-11-24T17:16:47.578Z,77.40
2017-11-24T17:19:15.853Z,77.10
2017-11-24T17:21:44.008Z,77.40
2017-11-24T17:24:12.177Z,76.80
2017-11-24T17:26:41.082Z,76.50
2017-11-24T17:29:09.309Z,76.40
2017-11-24T17:31:37.448Z,76.10
2017-11-24T17:34:05.628Z,76.30
2017-11-24T17:36:33.793Z,76.10
2017-11-24T17:39:01.968Z,75.90
2017-11-24T17:41:30.129Z,75.90
2017-11-24T17:43:58.286Z,75.20
2017-11-24T17:46:26.567Z,75.90
2017-11-24T17:48:54.739Z,75.60
2017-11-24T17:51:22.889Z,75.60
2017-11-24T17:53:51.946Z,76.00
2017-11-24T17:56:20.106Z,76.00
2017-11-24T17:58:48.294Z,76.20
2017-11-24T18:01:16.443Z,76.10
2017-11-24T18:03:44.605Z,76.10
2017-11-24T18:06:12.885Z,76.20
2017-11-24T18:08:41.040Z,76.10
2017-11-24T18:11:09.239Z,75.60
2017-11-24T18:13:37.406Z,75.50
2017-11-24T18:16:05.562Z,75.60
2017-11-24T18:18:34.474Z,75.30
2017-11-24T18:21:02.610Z,75.30
2017-11-24T18:23:31.553Z,75.40
2017-11-24T18:25:59.694Z,75.40
2017-11-24T18:28:28.009Z,75.50
2017-11-24T18:30:56.176Z,75.60
2017-11-24T18:33:24.333Z,75.80
2017-11-24T18:35:52.502Z,75.90
2017-11-24T18:38:21.406Z,76.20
2017-11-24T18:40:49.687Z,76.20
2017-11-24T18:43:17.822Z,76.50
2017-11-24T18:45:46.026Z,76.60
2017-11-24T18:48:14.195Z,76.10
2017-11-24T18:50:42.379Z,76.20
2017-11-24T18:53:10.553Z,76.00
2017-11-24T18:55:38.707Z,76.10
2017-11-24T18:58:06.879Z,76.20
2017-11-24T19:00:35.012Z,76.10
2017-11-24T19:03:03.316Z,75.60
2017-11-24T19:05:31.438Z,75.80
2017-11-24T19:07:59.581Z,76.10
2017-11-24T19:10:27.753Z,76.00
2017-11-24T19:12:55.901Z,75.90
2017-11-24T19:15:24.901Z,76.60
2017-11-24T19:17:53.018Z,76.60
2017-11-24T19:20:21.177Z,76.60
2017-11-24T19:22:49.462Z,76.50
2017-11-24T19:25:17.608Z,76.20
2017-11-24T19:27:45.771Z,76.50
2017-11-24T19:30:13.923Z,76.70
2017-11-24T19:32:42.992Z,76.60
2017-11-24T19:35:11.183Z,76.50
2017-11-24T19:37:39.320Z,76.60
2017-11-24T19:40:07.527Z,76.70
2017-11-24T19:42:35.684Z,76.70
2017-11-24T19:45:03.843Z,76.80
2017-11-24T19:47:32.001Z,76.80
2017-11-24T19:50:00.314Z,77.40
2017-11-24T19:52:28.545Z,77.60
2017-11-24T19:54:56.838Z,77.90
2017-11-24T19:57:33.259Z,77.70
2017-11-24T20:00:02.351Z,77.70
2017-11-24T20:02:30.608Z,77.70
2017-11-24T20:04:58.943Z,77.90
2017-11-24T20:07:27.463Z,77.70
2017-11-24T20:09:56.723Z,78.20
2017-11-24T20:12:25.237Z,78.20
2017-11-24T20:14:54.424Z,78.90
2017-11-24T20:17:22.836Z,78.90
2017-11-24T20:19:51.336Z,79.10
2017-11-24T20:22:19.794Z,79.10
2017-11-24T20:24:48.406Z,79.40
2017-11-24T20:27:16.905Z,79.60
2017-11-24T20:29:45.406Z,79.60
2017-11-24T20:32:13.835Z,79.80
2017-11-24T20:34:42.311Z,80.10
2017-11-24T20:37:10.807Z,80.10
2017-11-24T20:39:39.259Z,80.40
2017-11-24T20:42:08.613Z,80.70
2017-11-24T20:44:37.057Z,80.70
2017-11-24T20:47:05.551Z,81.20
2017-11-24T20:49:34.021Z,81.50
2017-11-24T20:52:02.504Z,81.40
2017-11-24T20:54:30.992Z,82.00
2017-11-24T20:56:59.589Z,81.70
2017-11-24T20:59:28.056Z,81.40
2017-11-24T21:01:56.487Z,81.50
2017-11-24T21:04:24.923Z,81.50
2017-11-24T21:06:53.328Z,81.70
2017-11-24T21:09:21.675Z,81.70
2017-11-24T21:11:50.055Z,81.90
2017-11-24T21:14:18.362Z,81.80
2017-11-24T21:16:46.615Z,82.10
2017-11-24T21:19:14.800Z,82.10
2017-11-24T21:21:43.132Z,82.30
2017-11-24T21:24:11.266Z,82.50
2017-11-24T21:26:39.474Z,82.60
2017-11-24T21:29:07.615Z,82.30
2017-11-24T21:31:35.755Z,82.30
2017-11-24T21:34:04.044Z,83.10
2017-11-24T21:36:32.222Z,82.40
2017-11-24T21:39:00.454Z,82.40
2017-11-24T21:41:28.602Z,82.30
2017-11-24T21:43:56.818Z,81.80
2017-11-24T21:46:24.979Z,81.70
2017-11-24T21:48:53.900Z,82.10
2017-11-24T21:51:22.076Z,82.10
2017-11-24T21:53:50.237Z,82.30
2017-11-24T21:56:18.426Z,82.20
2017-11-24T21:58:46.573Z,82.40
2017-11-24T22:01:15.514Z,82.60
2017-11-24T22:03:43.669Z,82.60
2017-11-24T22:06:11.981Z,82.60
2017-11-24T22:08:40.145Z,82.80
2017-11-24T22:11:08.290Z,82.90
2017-11-24T22:13:36.502Z,82.90
2017-11-24T22:16:04.655Z,83.10
2017-11-24T22:18:32.843Z,83.10
2017-11-24T22:21:01.002Z,83.20
2017-11-24T22:23:29.331Z,83.70
2017-11-24T22:25:58.240Z,83.80
2017-11-24T22:28:26.400Z,83.80
2017-11-24T22:30:55.329Z,83.70
2017-11-24T22:33:23.467Z,83.70
2017-11-24T22:35:52.393Z,83.50
2017-11-24T22:38:20.568Z,83.50
2017-11-24T22:40:48.728Z,83.70
2017-11-24T22:43:16.879Z,83.70
2017-11-24T22:45:45.775Z,83.40
2017-11-24T22:48:13.944Z,83.40
2017-11-24T22:50:42.851Z,83.20
2017-11-24T22:53:11.154Z,83.20
2017-11-24T22:55:39.294Z,83.00
2017-11-24T22:58:07.468Z,83.10
2017-11-24T23:00:35.610Z,82.80
2017-11-24T23:03:03.762Z,82.60
2017-11-24T23:05:31.906Z,83.00
2017-11-24T23:08:00.051Z,82.70
2017-11-24T23:10:28.313Z,82.40
2017-11-24T23:12:56.481Z,82.50
2017-11-24T23:15:25.401Z,82.20
2017-11-24T23:17:53.548Z,82.20
2017-11-24T23:20:21.818Z,82.10
2017-11-24T23:22:49.958Z,83.30
2017-11-24T23:25:18.146Z,82.10
2017-11-24T23:27:46.279Z,82.10
2017-11-24T23:30:14.416Z,81.90
2017-11-24T23:32:43.364Z,82.00
2017-11-24T23:35:11.516Z,82.00
2017-11-24T23:37:39.777Z,81.60
2017-11-24T23:40:08.705Z,81.40
2017-11-24T23:42:36.846Z,81.30
2017-11-24T23:45:04.982Z,81.60
2017-11-24T23:47:33.158Z,81.40
2017-11-24T23:50:01.294Z,81.50
2017-11-24T23:52:29.601Z,81.40
2017-11-24T23:54:57.728Z,81.10
2017-11-24T23:57:25.912Z,81.40
2017-11-24T23:59:54.052Z,81.30
